Time;durP1;ratioP1;P1;durP2;ratioP2;P2;SDS_P1;SDS_P2;PMS_P1;PMS_P2;Temp;Humidity;BMP_temperature;BMP_pressure;BME280_temperature;BME280_humidity;BME280_pressure;Samples;Min_cycle;Max_cycle;Signal;HPM_P1;HPM_P2
2021/12/25 00:02:26;;;;;;;0.70;0.70;;;0.10;99.90;;;;;;5113664;28;20084;-84
2021/12/25 00:04:52;;;;;;;;;;;0.10;99.90;;;;;;5080512;28;20046;-84
2021/12/25 00:07:18;;;;;;;0.80;0.80;;;0.10;99.90;;;;;;5117538;28;19916;-84
2021/12/25 00:09:43;;;;;;;0.80;0.80;;;0.10;99.90;;;;;;5117524;28;20039;-85
2021/12/25 00:12:09;;;;;;;0.80;0.80;;;0.00;99.90;;;;;;5117394;28;20502;-85
2021/12/25 00:14:35;;;;;;;0.80;0.80;;;0.00;99.90;;;;;;5117157;28;20547;-85
2021/12/25 00:17:01;;;;;;;0.80;0.80;;;0.00;99.90;;;;;;5117187;28;20040;-84
2021/12/25 00:19:26;;;;;;;0.77;0.77;;;-0.10;99.90;;;;;;5115931;28;20040;-84
2021/12/25 00:21:52;;;;;;;0.80;0.80;;;-0.10;99.90;;;;;;5117267;28;20036;-85
2021/12/25 00:24:18;;;;;;;0.70;0.70;;;;;;;;;;5117364;28;20043;-85
2021/12/25 00:26:53;;;;;;;0.70;0.70;;;-0.10;99.90;;;;;;5117157;28;20054;-85
2021/12/25 00:32:13;;;;;;;2.67;2.58;;;-0.20;99.90;;;;;;5117089;28;20403;-84
2021/12/25 00:34:40;;;;;;;0.80;0.80;;;-0.20;99.90;;;;;;5117059;28;20040;-85
2021/12/25 00:37:06;;;;;;;;;;;-0.30;99.90;;;;;;5117329;28;20494;-85
2021/12/25 00:39:32;;;;;;;0.70;0.70;;;-0.30;99.90;;;;;;5115376;28;19924;-85
2021/12/25 00:41:59;;;;;;;0.80;0.80;;;-0.30;99.90;;;;;;5115635;28;20036;-85
2021/12/25 00:44:26;;;;;;;0.80;0.80;;;-0.40;99.90;;;;;;5116808;28;20027;-85
2021/12/25 00:46:55;;;;;;;0.80;0.80;;;-0.40;99.90;;;;;;5115636;28;20360;-84
2021/12/25 00:49:21;;;;;;;0.73;0.73;;;-0.30;99.90;;;;;;5115765;28;20387;-85
2021/12/25 00:51:47;;;;;;;0.77;0.77;;;-0.40;99.90;;;;;;5116396;28;20043;-85
2021/12/25 00:54:15;;;;;;;0.87;0.87;;;-0.50;99.90;;;;;;5115245;28;20043;-84
2021/12/25 00:56:40;;;;;;;0.80;0.80;;;-0.50;99.90;;;;;;5116627;28;20046;-85
2021/12/25 00:59:06;;;;;;;0.70;0.70;;;-0.60;99.90;;;;;;5116587;28;20458;-84
2021/12/25 01:01:31;;;;;;;0.90;0.90;;;-0.70;99.90;;;;;;5116504;28;20042;-85
2021/12/25 01:03:57;;;;;;;0.75;0.75;;;0.80;99.90;;;;;;5116647;28;20115;-83
2021/12/25 01:06:23;;;;;;;0.80;0.80;;;-0.70;99.90;;;;;;5116506;28;20097;-85
2021/12/25 01:08:48;;;;;;;0.70;0.70;;;-0.60;99.90;;;;;;5115299;28;20055;-85
2021/12/25 01:11:14;;;;;;;0.70;0.70;;;-0.80;99.90;;;;;;5114984;28;20044;-84
2021/12/25 01:13:48;;;;;;;0.70;0.70;;;-0.80;99.90;;;;;;5115188;28;20047;-85
2021/12/25 01:27:23;;;;;;;0.80;0.80;;;-1.00;99.90;;;;;;5114578;28;20629;-84
2021/12/25 01:32:46;;;;;;;0.88;0.88;;;-1.10;99.90;;;;;;5115126;28;20054;-85
2021/12/25 01:48:22;;;;;;;0.80;0.80;;;-1.30;99.90;;;;;;5115612;28;20043;-84
2021/12/25 01:50:48;;;;;;;0.80;0.80;;;-1.40;99.90;;;;;;5115736;28;20042;-84
2021/12/25 01:53:14;;;;;;;0.80;0.80;;;-1.30;99.90;;;;;;5114202;28;20399;-84
2021/12/25 01:55:40;;;;;;;0.80;0.80;;;-1.30;99.90;;;;;;5114107;28;20126;-85
2021/12/25 01:58:06;;;;;;;0.90;0.90;;;-1.40;99.90;;;;;;5115470;28;20035;-84
2021/12/25 02:00:40;;;;;;;0.87;0.87;;;-1.50;99.90;;;;;;5115432;28;20536;-84
2021/12/25 02:03:09;;;;;;;0.80;0.80;;;-1.50;99.90;;;;;;5115238;28;20090;-84
2021/12/25 02:05:35;;;;;;;0.80;0.80;;;-1.50;99.90;;;;;;5114083;28;20470;-84
2021/12/25 02:08:02;;;;;;;0.80;0.80;;;-1.50;99.90;;;;;;5113762;28;20036;-84
2021/12/25 02:10:30;;;;;;;0.82;0.82;;;-1.60;99.90;;;;;;5114068;28;20040;-84
2021/12/25 02:12:56;;;;;;;0.80;0.80;;;-1.60;99.90;;;;;;5114009;28;20040;-84
2021/12/25 02:15:24;;;;;;;0.80;0.80;;;-1.60;99.90;;;;;;5115310;28;20497;-84
2021/12/25 02:20:55;;;;;;;0.80;0.80;;;-1.70;99.90;;;;;;5113733;28;20104;-84
2021/12/25 02:23:24;;;;;;;0.80;0.80;;;-1.70;99.90;;;;;;5113862;28;20050;-84
2021/12/25 02:25:52;;;;;;;0.80;0.80;;;-1.70;99.90;;;;;;5096362;28;20039;-84
2021/12/25 02:28:18;;;;;;;0.80;0.80;;;-1.80;99.90;;;;;;5112466;28;20042;-85
2021/12/25 02:30:47;;;;;;;0.80;0.80;;;-1.20;99.90;;;;;;5096446;28;20032;-84
2021/12/25 02:33:13;;;;;;;0.80;0.80;;;-1.50;99.90;;;;;;5114778;28;20126;-84
2021/12/25 02:35:38;;;;;;;0.88;0.88;;;-1.80;99.90;;;;;;5113238;28;20044;-85
2021/12/25 02:38:05;;;;;;;0.98;0.98;;;-1.60;99.90;;;;;;5113472;28;20042;-84
2021/12/25 02:40:30;;;;;;;0.80;0.80;;;-2.00;99.90;;;;;;5114579;28;20131;-84
2021/12/25 02:42:56;;;;;;;0.90;0.90;;;-1.70;99.90;;;;;;5113255;28;20114;-85
2021/12/25 02:45:23;;;;;;;0.85;0.85;;;-1.70;99.90;;;;;;5113296;28;20043;-84
2021/12/25 02:47:51;;;;;;;0.80;0.80;;;-2.20;99.90;;;;;;5114781;28;20104;-85
2021/12/25 02:50:31;;;;;;;0.70;0.70;;;-2.20;99.90;;;;;;5096850;28;20035;-84
2021/12/25 02:52:59;;;;;;;0.80;0.80;;;-2.10;99.90;;;;;;5114411;28;20526;-85
2021/12/25 02:55:27;;;;;;;0.80;0.80;;;-2.10;99.90;;;;;;5115626;28;20051;-85
2021/12/25 02:57:53;;;;;;;0.80;0.80;;;-2.10;99.90;;;;;;5118865;28;20043;-84
2021/12/25 03:00:21;;;;;;;0.80;0.80;;;-2.10;99.90;;;;;;5137233;28;20096;-84
2021/12/25 03:02:47;;;;;;;0.80;0.80;;;-2.20;99.90;;;;;;5123085;28;20048;-85
2021/12/25 03:05:13;;;;;;;0.90;0.90;;;-2.20;99.90;;;;;;5096147;28;20036;-84
2021/12/25 03:07:39;;;;;;;0.80;0.80;;;-2.20;99.90;;;;;;5125349;28;20038;-85
2021/12/25 03:10:07;;;;;;;0.80;0.80;;;-2.30;99.90;;;;;;5126704;28;20096;-85
2021/12/25 03:12:45;;;;;;;0.80;0.80;;;-2.30;99.90;;;;;;5095924;28;20050;-85
2021/12/25 03:15:15;;;;;;;0.80;0.80;;;-2.30;99.90;;;;;;5096411;28;20036;-84
2021/12/25 03:17:41;;;;;;;0.80;0.80;;;-2.10;99.90;;;;;;5096969;28;20126;-84
2021/12/25 03:20:10;;;;;;;0.80;0.80;;;-2.40;99.90;;;;;;5112717;28;20548;-84
2021/12/25 03:22:37;;;;;;;0.80;0.80;;;-2.40;99.90;;;;;;5116516;28;20038;-84
2021/12/25 03:25:12;;;;;;;;;;;-2.50;99.90;;;;;;5113714;28;20104;-85
2021/12/25 03:27:39;;;;;;;0.80;0.80;;;-2.50;99.90;;;;;;5095865;28;19923;-85
2021/12/25 03:30:07;;;;;;;0.90;0.90;;;-2.50;99.90;;;;;;5114059;28;20091;-84
2021/12/25 03:32:33;;;;;;;0.90;0.90;;;;;;;;;;5095427;28;20127;-85
2021/12/25 03:34:59;;;;;;;0.90;0.90;;;-2.70;99.90;;;;;;5113011;28;20047;-85
2021/12/25 03:37:25;;;;;;;0.80;0.80;;;-2.70;99.90;;;;;;5112763;28;20075;-84
2021/12/25 03:39:51;;;;;;;0.80;0.80;;;-2.80;99.90;;;;;;5096680;28;20091;-84
2021/12/25 03:42:18;;;;;;;0.80;0.80;;;-2.80;99.90;;;;;;5116701;28;20118;-84
2021/12/25 03:44:44;;;;;;;0.80;0.80;;;-2.60;99.90;;;;;;5116927;28;20493;-85
2021/12/25 03:47:27;;;;;;;0.80;0.80;;;-2.80;99.90;;;;;;5118048;28;20085;-84
2021/12/25 03:58:31;;;;;;;0.80;0.80;;;-2.90;99.90;;;;;;5074606;28;20048;-83
2021/12/25 04:01:02;;;;;;;0.90;0.90;;;-3.00;99.90;;;;;;5074588;28;20044;-84
2021/12/25 04:03:49;;;;;;;0.80;0.80;;;-3.00;99.90;;;;;;5079802;28;20430;-83
2021/12/25 04:06:15;;;;;;;0.90;0.90;;;-2.70;99.90;;;;;;5117331;28;20046;-84
2021/12/25 04:08:44;;;;;;;0.90;0.90;;;-3.00;99.90;;;;;;5117532;28;20114;-84
2021/12/25 04:11:25;;;;;;;0.90;0.90;;;;;;;;;;5117467;28;20035;-83
2021/12/25 04:13:51;;;;;;;0.90;0.90;;;-3.10;99.90;;;;;;5117401;28;20043;-84
2021/12/25 04:16:17;;;;;;;0.90;0.90;;;-3.10;99.90;;;;;;5116226;28;20043;-83
2021/12/25 04:18:42;;;;;;;13.77;12.70;;;-3.10;99.90;;;;;;5117316;28;20455;-83
2021/12/25 04:21:08;;;;;;;0.90;0.90;;;-3.20;99.90;;;;;;5117442;28;20105;-82
2021/12/25 04:23:37;;;;;;;0.90;0.90;;;-3.20;99.90;;;;;;5117255;28;20040;-82
2021/12/25 04:26:03;;;;;;;0.90;0.90;;;-3.20;99.90;;;;;;5117305;27;20046;-83
2021/12/25 04:28:39;;;;;;;0.90;0.90;;;-3.00;99.90;;;;;;5117285;28;20426;-83
2021/12/25 04:31:25;;;;;;;0.90;0.90;;;-3.40;99.90;;;;;;5116103;28;20043;-83
2021/12/25 05:01:43;;;;;;;0.80;0.80;;;-3.50;99.90;;;;;;5116754;28;20048;-83
2021/12/25 05:04:03;;;;;;;0.90;0.90;;;-3.50;99.90;;;;;;5116529;28;20039;-82
2021/12/25 05:06:29;;;;;;;0.80;0.80;;;-3.50;99.90;;;;;;5116465;28;20114;-83
2021/12/25 05:08:56;;;;;;;0.90;0.90;;;-3.60;99.90;;;;;;5116289;28;20044;-83
2021/12/25 05:11:22;;;;;;;0.90;0.90;;;-3.60;99.90;;;;;;5116252;28;20105;-83
2021/12/25 05:13:49;;;;;;;0.90;0.90;;;-3.60;99.90;;;;;;5116244;28;20040;-83
2021/12/25 05:16:19;;;;;;;0.90;0.90;;;-3.60;99.90;;;;;;5116206;28;20039;-82
2021/12/25 05:18:45;;;;;;;0.90;0.90;;;;;;;;;;5116108;28;20086;-82
2021/12/25 05:21:13;;;;;;;0.90;0.90;;;-3.60;99.90;;;;;;5114620;28;20031;-83
2021/12/25 05:23:39;;;;;;;0.90;0.90;;;-3.30;99.90;;;;;;5116039;28;20036;-79
2021/12/25 05:26:05;;;;;;;0.90;0.90;;;-3.60;99.90;;;;;;5116191;27;20039;-82
2021/12/25 05:28:40;;;;;;;0.90;0.90;;;-3.60;99.90;;;;;;5116078;28;20364;-82
2021/12/25 05:31:06;;;;;;;1.20;1.10;;;-3.70;99.90;;;;;;5116139;28;20078;-83
2021/12/25 05:33:32;;;;;;;;;;;-3.70;99.90;;;;;;5116462;28;20051;-83
2021/12/25 05:35:58;;;;;;;0.80;0.80;;;-3.70;99.90;;;;;;5114627;28;20033;-83
2021/12/25 05:38:24;;;;;;;0.90;0.90;;;-3.60;99.90;;;;;;5115805;28;20172;-82
2021/12/25 05:40:50;;;;;;;0.90;0.90;;;-3.70;99.90;;;;;;5114331;28;20099;-83
2021/12/25 05:43:16;;;;;;;1.10;1.00;;;;;;;;;;5115606;28;20123;-83
2021/12/25 05:45:42;;;;;;;0.90;0.90;;;-3.70;99.90;;;;;;5115699;28;20120;-82
2021/12/25 05:48:09;;;;;;;1.00;0.90;;;-3.70;99.90;;;;;;5115524;28;20035;-83
2021/12/25 05:50:35;;;;;;;0.90;0.90;;;-3.80;99.90;;;;;;5114054;28;20277;-83
2021/12/25 05:53:01;;;;;;;0.90;0.90;;;;;;;;;;5115231;28;20507;-82
2021/12/25 05:55:27;;;;;;;1.10;1.00;;;-3.80;99.90;;;;;;5114124;28;20646;-82
2021/12/25 05:57:53;;;;;;;0.90;0.90;;;-3.80;99.90;;;;;;5114421;28;20109;-83
2021/12/25 06:00:19;;;;;;;0.90;0.90;;;-3.80;99.90;;;;;;5115481;28;20038;-82
2021/12/25 06:02:45;;;;;;;0.90;0.90;;;-3.80;99.90;;;;;;5115524;28;20040;-83
2021/12/25 06:05:11;;;;;;;1.23;1.13;;;-3.90;99.90;;;;;;5114155;28;20031;-82
2021/12/25 06:07:37;;;;;;;0.90;0.90;;;-3.90;99.90;;;;;;5116231;28;20039;-85
2021/12/25 06:10:07;;;;;;;0.90;0.90;;;-4.00;99.90;;;;;;5114380;28;20277;-81
2021/12/25 06:12:33;;;;;;;0.90;0.90;;;-3.90;99.90;;;;;;5115659;28;20077;-82
2021/12/25 06:15:01;;;;;;;0.80;0.80;;;-3.90;99.90;;;;;;5115250;28;20506;-81
2021/12/25 06:17:27;;;;;;;0.90;0.90;;;-4.10;99.90;;;;;;5113543;28;20050;-80
2021/12/25 06:19:53;;;;;;;1.10;1.00;;;-4.00;99.90;;;;;;5115033;28;20035;-80
2021/12/25 06:22:18;;;;;;;0.90;0.90;;;-4.10;99.90;;;;;;5114886;28;20054;-81
2021/12/25 06:24:49;;;;;;;1.00;1.00;;;-4.00;99.90;;;;;;5113829;28;20028;-81
2021/12/25 06:27:19;;;;;;;0.90;0.90;;;-4.00;99.90;;;;;;5114633;28;20039;-81
2021/12/25 06:29:45;;;;;;;1.00;0.90;;;-4.00;99.90;;;;;;5114863;27;20035;-82
2021/12/25 06:32:11;;;;;;;0.90;0.90;;;-4.00;99.90;;;;;;5114788;28;20039;-81
2021/12/25 06:34:41;;;;;;;1.10;1.00;;;-4.00;99.90;;;;;;5114747;28;20046;-81
2021/12/25 06:37:07;;;;;;;1.30;1.20;;;-2.80;99.90;;;;;;5114763;28;20039;-80
2021/12/25 06:39:33;;;;;;;0.90;0.90;;;-4.10;99.90;;;;;;5113410;28;20092;-81
2021/12/25 06:42:00;;;;;;;0.97;0.90;;;-4.10;99.90;;;;;;5113708;28;20036;-80
2021/12/25 06:44:27;;;;;;;1.10;1.00;;;-4.10;99.90;;;;;;5113455;28;20031;-82
2021/12/25 06:46:53;;;;;;;0.90;0.90;;;-4.10;99.90;;;;;;5114224;28;20043;-80
2021/12/25 06:49:20;;;;;;;1.05;1.00;;;-4.10;99.90;;;;;;5114501;28;20043;-80
2021/12/25 06:51:46;;;;;;;0.90;0.90;;;-4.10;99.90;;;;;;5114734;28;20407;-79
2021/12/25 06:54:12;;;;;;;0.90;0.90;;;-4.20;99.90;;;;;;5112922;28;20118;-81
2021/12/25 06:56:38;;;;;;;0.90;0.90;;;-4.10;99.90;;;;;;5113111;28;20448;-79
2021/12/25 06:59:04;;;;;;;0.95;0.90;;;-4.20;99.90;;;;;;5113156;28;20040;-80
2021/12/25 07:01:29;;;;;;;1.10;1.00;;;-4.20;99.90;;;;;;5113070;28;20036;-79
2021/12/25 07:03:55;;;;;;;1.10;1.00;;;-4.20;99.90;;;;;;5114271;28;20032;-82
2021/12/25 07:06:21;;;;;;;1.10;1.00;;;-4.20;99.90;;;;;;5112815;28;20031;-83
2021/12/25 07:08:47;;;;;;;0.90;0.90;;;-4.20;99.90;;;;;;5114302;28;20032;-79
2021/12/25 07:11:14;;;;;;;1.10;1.00;;;;;;;;;;5114287;28;20043;-81
2021/12/25 07:13:43;;;;;;;1.10;1.00;;;-4.20;99.90;;;;;;5113162;28;20043;-81
2021/12/25 07:16:09;;;;;;;1.10;1.00;;;-4.30;99.90;;;;;;5112276;28;20050;-82
2021/12/25 07:18:35;;;;;;;1.10;1.00;;;-4.30;99.90;;;;;;5117383;28;20067;-81
2021/12/25 07:21:01;;;;;;;1.10;1.00;;;-4.30;99.90;;;;;;5098640;28;20039;-85
2021/12/25 07:23:27;;;;;;;1.10;1.00;;;-4.40;99.90;;;;;;5095683;28;20123;-83
2021/12/25 07:25:53;;;;;;;1.10;1.00;;;-4.30;99.90;;;;;;5113364;28;20067;-84
2021/12/25 07:28:18;;;;;;;1.10;1.00;;;-4.10;99.90;;;;;;5115083;28;20047;-83
2021/12/25 07:30:47;;;;;;;1.00;0.90;;;-4.30;99.90;;;;;;5113122;28;20028;-84
2021/12/25 07:33:12;;;;;;;0.90;0.90;;;-4.30;99.90;;;;;;5112844;28;20047;-81
2021/12/25 07:35:41;;;;;;;0.90;0.90;;;-4.30;99.90;;;;;;5112632;28;20035;-86
2021/12/25 07:38:06;;;;;;;0.90;0.90;;;-4.40;99.90;;;;;;5112457;28;20559;-87
2021/12/25 07:40:32;;;;;;;0.90;0.90;;;;;;;;;;5095904;28;20089;-82
2021/12/25 07:42:58;;;;;;;0.90;0.90;;;-4.20;99.90;;;;;;5112686;28;20081;-83
2021/12/25 07:45:23;;;;;;;0.90;0.90;;;-4.20;99.90;;;;;;5112372;28;20047;-84
2021/12/25 07:47:58;;;;;;;1.10;1.00;;;;;;;;;;5113871;28;20044;-85
2021/12/25 07:50:24;;;;;;;0.90;0.90;;;-4.20;99.90;;;;;;5112866;28;20369;-85
2021/12/25 07:52:50;;;;;;;0.93;0.90;;;-4.30;99.90;;;;;;5112378;28;20059;-81
2021/12/25 07:55:15;;;;;;;0.90;0.90;;;-4.30;99.90;;;;;;5114017;28;20046;-80
2021/12/25 07:57:41;;;;;;;0.90;0.90;;;-4.30;99.90;;;;;;5112844;28;20429;-79
2021/12/25 08:00:09;;;;;;;1.10;1.00;;;-4.30;99.90;;;;;;5114004;28;20040;-82
2021/12/25 08:02:35;;;;;;;0.93;0.90;;;-4.30;99.90;;;;;;5113654;28;20035;-83
2021/12/25 08:05:00;;;;;;;1.00;0.93;;;-4.40;99.90;;;;;;5112828;28;20123;-79
2021/12/25 08:07:26;;;;;;;0.90;0.90;;;-4.30;99.90;;;;;;5113523;28;20043;-81
2021/12/25 08:09:56;;;;;;;1.10;1.00;;;-4.30;99.90;;;;;;5095788;28;20043;-83
2021/12/25 08:12:22;;;;;;;1.10;1.00;;;-4.30;99.90;;;;;;5113152;28;20047;-82
2021/12/25 08:14:47;;;;;;;1.10;1.00;;;-4.30;99.90;;;;;;5112586;28;20027;-81
2021/12/25 08:17:13;;;;;;;1.10;1.00;;;-4.30;99.90;;;;;;5113610;28;20051;-84
2021/12/25 08:19:39;;;;;;;0.97;0.93;;;-4.30;99.90;;;;;;5113783;28;20100;-80
2021/12/25 08:22:05;;;;;;;1.00;1.00;;;-4.30;99.90;;;;;;5112323;28;20035;-79
2021/12/25 08:24:30;;;;;;;1.07;1.00;;;-4.30;99.90;;;;;;5112305;28;20047;-81
2021/12/25 08:27:00;;;;;;;1.00;0.90;;;-4.40;99.90;;;;;;5113230;28;20036;-82
2021/12/25 08:29:26;;;;;;;0.90;0.90;;;-4.30;99.90;;;;;;5117886;28;20104;-85
2021/12/25 08:31:51;;;;;;;1.03;0.93;;;-4.40;99.90;;;;;;5117432;28;20039;-83
2021/12/25 08:34:17;;;;;;;0.93;0.93;;;-4.30;99.90;;;;;;5117217;28;20406;-84
2021/12/25 08:36:43;;;;;;;1.10;1.00;;;-4.30;99.90;;;;;;5098656;28;20035;-82
2021/12/25 08:39:09;;;;;;;1.03;1.00;;;-4.30;99.90;;;;;;5115859;28;20043;-82
2021/12/25 08:41:37;;;;;;;1.10;1.00;;;-4.30;99.90;;;;;;5098477;28;20114;-81
2021/12/25 08:44:09;;;;;;;1.00;0.93;;;-4.40;99.90;;;;;;5116011;28;20036;-81
2021/12/25 08:46:44;;;;;;;1.10;1.00;;;-4.30;99.90;;;;;;5117527;28;20420;-77
2021/12/25 08:49:16;;;;;;;0.90;0.90;;;-4.30;99.90;;;;;;5114962;28;20073;-82
2021/12/25 08:51:42;;;;;;;0.95;0.93;;;-4.30;99.90;;;;;;5114784;28;20066;-79
2021/12/25 08:54:08;;;;;;;1.10;1.00;;;-4.40;99.90;;;;;;5115376;28;20491;-78
2021/12/25 08:56:34;;;;;;;1.10;1.00;;;-4.00;99.90;;;;;;5114863;28;20043;-81
2021/12/25 08:59:00;;;;;;;1.00;0.90;;;-3.90;99.90;;;;;;5097669;28;20088;-81
2021/12/25 09:01:26;;;;;;;1.00;1.00;;;-4.30;99.90;;;;;;5114652;28;20479;-80
2021/12/25 09:03:51;;;;;;;0.97;0.97;;;-4.30;99.90;;;;;;5116827;28;20043;-82
2021/12/25 09:06:17;;;;;;;1.07;1.00;;;-4.30;99.90;;;;;;5081204;28;20286;-83
2021/12/25 09:08:43;;;;;;;0.90;0.90;;;-4.30;99.90;;;;;;5107344;28;20031;-80
2021/12/25 09:11:09;;;;;;;0.90;0.90;;;-4.20;99.90;;;;;;5101851;28;20039;-79
2021/12/25 09:13:34;;;;;;;1.10;1.00;;;-4.20;99.90;;;;;;5114945;28;20065;-77
2021/12/25 09:16:00;;;;;;;1.10;1.00;;;-4.20;99.90;;;;;;5116232;28;20083;-76
2021/12/25 09:18:25;;;;;;;1.10;1.00;;;-4.20;99.90;;;;;;5114719;28;20115;-79
2021/12/25 09:20:51;;;;;;;1.10;1.00;;;-4.10;99.90;;;;;;5095924;28;20089;-82
2021/12/25 09:23:17;;;;;;;0.90;0.90;;;-4.10;99.90;;;;;;5095765;28;20043;-82
2021/12/25 09:25:43;;;;;;;0.90;0.90;;;-4.00;99.90;;;;;;5095709;28;20112;-82
2021/12/25 09:28:08;;;;;;;0.90;0.90;;;-4.00;99.90;;;;;;5095355;28;20089;-78
2021/12/25 09:30:36;;;;;;;1.10;1.00;;;-4.00;99.90;;;;;;5095693;28;20051;-81
2021/12/25 09:33:02;;;;;;;1.20;1.10;;;-3.90;99.90;;;;;;5101002;28;20031;-80
2021/12/25 09:35:28;;;;;;;0.90;0.90;;;-4.00;99.90;;;;;;5116234;28;20093;-78
2021/12/25 09:37:54;;;;;;;1.03;1.00;;;-3.80;99.90;;;;;;5115414;28;20475;-81
2021/12/25 09:40:20;;;;;;;1.03;0.97;;;-3.80;99.90;;;;;;5111050;28;20079;-81
2021/12/25 09:42:45;;;;;;;0.90;0.90;;;-3.80;99.90;;;;;;5115607;28;20084;-81
2021/12/25 09:45:12;;;;;;;0.90;0.90;;;-3.70;99.90;;;;;;5115691;28;20059;-82
2021/12/25 09:47:38;;;;;;;0.90;0.90;;;-3.70;99.90;;;;;;5108143;28;20039;-81
2021/12/25 09:50:05;;;;;;;0.90;0.90;;;-3.60;99.90;;;;;;5121758;27;20044;-82
2021/12/25 09:52:31;;;;;;;0.90;0.90;;;-3.60;99.90;;;;;;5094845;28;20052;-81
2021/12/25 09:54:57;;;;;;;0.97;0.90;;;-3.50;99.90;;;;;;5095084;28;20055;-79
2021/12/25 09:57:23;;;;;;;1.00;1.00;;;-3.50;99.90;;;;;;5128002;27;20494;-80
2021/12/25 09:59:49;;;;;;;1.10;1.00;;;-3.40;99.90;;;;;;5095006;28;20169;-80
2021/12/25 10:02:15;;;;;;;0.80;0.80;;;-3.40;99.90;;;;;;5110671;28;20066;-78
2021/12/25 10:04:47;;;;;;;0.90;0.90;;;-3.30;99.90;;;;;;5105817;28;20054;-79
2021/12/25 10:07:16;;;;;;;0.90;0.90;;;-3.30;99.90;;;;;;5115037;28;20521;-81
2021/12/25 10:09:41;;;;;;;0.90;0.90;;;-3.20;99.90;;;;;;5115949;28;20044;-86
2021/12/25 10:12:11;;;;;;;0.90;0.90;;;-3.10;99.90;;;;;;5134150;27;20098;-81
2021/12/25 10:14:40;;;;;;;0.90;0.90;;;-3.10;99.90;;;;;;5126188;28;20036;-86
2021/12/25 10:17:13;;;;;;;0.98;0.90;;;-3.10;99.90;;;;;;5115002;28;20063;-82
2021/12/25 10:19:39;;;;;;;0.90;0.90;;;-1.50;99.90;;;;;;5114305;28;20032;-82
2021/12/25 10:22:09;;;;;;;0.90;0.90;;;-3.00;99.90;;;;;;5113897;28;20077;-81
2021/12/25 10:24:50;;;;;;;0.80;0.80;;;-2.90;99.90;;;;;;5098499;28;20036;-82
2021/12/25 10:27:20;;;;;;;0.80;0.80;;;-2.80;99.90;;;;;;5102526;28;20102;-82
2021/12/25 10:29:47;;;;;;;0.90;0.90;;;-2.80;99.90;;;;;;5110017;28;20084;-81
2021/12/25 10:32:17;;;;;;;0.90;0.90;;;-2.70;99.90;;;;;;5113495;28;20035;-82
2021/12/25 10:34:44;;;;;;;0.90;0.90;;;-2.70;99.90;;;;;;5110348;28;20032;-80
2021/12/25 10:37:12;;;;;;;1.65;1.55;;;-2.70;99.90;;;;;;5113454;28;20043;-82
2021/12/25 10:39:38;;;;;;;0.90;0.90;;;-2.60;99.90;;;;;;5114781;28;20043;-82
2021/12/25 10:42:32;;;;;;;0.80;0.80;;;-2.50;99.90;;;;;;5114852;28;20036;-82
2021/12/25 10:45:01;;;;;;;0.80;0.80;;;-2.50;99.90;;;;;;5110443;28;20048;-81
2021/12/25 10:47:28;;;;;;;0.80;0.80;;;-2.50;99.90;;;;;;5114075;28;20376;-83
2021/12/25 10:50:13;;;;;;;0.80;0.80;;;-2.40;99.90;;;;;;5109383;28;20108;-80
2021/12/25 10:52:45;;;;;;;0.80;0.80;;;-2.40;99.90;;;;;;5108199;28;20083;-81
2021/12/25 10:55:24;;;;;;;0.80;0.80;;;-2.40;99.90;;;;;;5114585;28;20048;-80
2021/12/25 10:57:50;;;;;;;0.80;0.80;;;-2.30;99.90;;;;;;5114654;28;20089;-81
2021/12/25 11:00:36;;;;;;;0.80;0.80;;;-2.30;99.90;;;;;;5112872;28;20035;-81
2021/12/25 11:03:06;;;;;;;0.85;0.85;;;-2.20;99.90;;;;;;5094221;28;20036;-82
2021/12/25 11:05:34;;;;;;;0.95;0.95;;;-2.20;99.90;;;;;;5127009;27;20039;-84
2021/12/25 11:08:15;;;;;;;0.77;0.77;;;-2.10;99.90;;;;;;5094079;28;20040;-81
2021/12/25 11:10:49;;;;;;;0.80;0.80;;;-2.10;99.90;;;;;;5093915;28;20081;-81
2021/12/25 11:13:21;;;;;;;0.80;0.80;;;-2.00;99.90;;;;;;5094165;28;20044;-83
2021/12/25 11:15:48;;;;;;;0.80;0.80;;;-2.00;99.90;;;;;;5110948;28;20118;-82
2021/12/25 11:18:15;;;;;;;0.80;0.80;;;-2.00;99.90;;;;;;5094429;28;20093;-84
2021/12/25 11:20:43;;;;;;;0.80;0.80;;;-2.00;99.90;;;;;;5095939;28;20048;-80
2021/12/25 11:23:11;;;;;;;0.80;0.80;;;-2.00;99.90;;;;;;5094412;28;20043;-81
2021/12/25 11:25:38;;;;;;;1.15;1.15;;;-1.90;99.90;;;;;;5095112;28;20054;-81
2021/12/25 11:28:07;;;;;;;0.80;0.80;;;-1.90;99.90;;;;;;5108931;28;20039;-79
2021/12/25 11:30:36;;;;;;;0.80;0.80;;;-1.90;99.90;;;;;;5119633;28;20061;-80
2021/12/25 11:33:01;;;;;;;3.90;1.88;;;-1.90;99.90;;;;;;5114429;28;20118;-79
2021/12/25 11:35:28;;;;;;;0.80;0.80;;;-1.70;99.90;;;;;;5115039;28;20079;-83
2021/12/25 11:37:55;;;;;;;0.80;0.80;;;-1.70;99.90;;;;;;5113963;28;20139;-81
2021/12/25 11:40:26;;;;;;;1.10;1.00;;;-1.70;99.90;;;;;;5096046;28;20482;-79
2021/12/25 11:42:56;;;;;;;0.80;0.80;;;-1.70;99.90;;;;;;5099833;28;20040;-83
2021/12/25 11:45:30;;;;;;;0.80;0.80;;;-1.60;99.90;;;;;;5114178;28;20032;-79
2021/12/25 11:47:58;;;;;;;0.80;0.80;;;-1.60;99.90;;;;;;5114279;28;20078;-78
2021/12/25 11:50:39;;;;;;;0.80;0.80;;;-1.60;99.90;;;;;;5116125;28;20097;-85
2021/12/25 11:58:38;;;;;;;0.82;0.82;;;-1.50;99.90;;;;;;5102733;28;20066;-80
2021/12/25 12:01:25;;;;;;;0.80;0.80;;;-1.40;99.90;;;;;;5109676;28;20457;-83
2021/12/25 12:03:58;;;;;;;0.90;0.90;;;-1.50;99.90;;;;;;5096099;28;20495;-80
2021/12/25 12:06:45;;;;;;;0.80;0.80;;;-1.40;99.90;;;;;;5096996;28;20074;-83
2021/12/25 12:09:12;;;;;;;0.80;0.80;;;-1.50;99.90;;;;;;5097219;28;20487;-81
2021/12/25 12:11:40;;;;;;;0.80;0.80;;;-1.50;99.90;;;;;;5113001;28;20483;-82
2021/12/25 12:14:25;;;;;;;0.80;0.80;;;-1.40;99.90;;;;;;5097987;28;20480;-77
2021/12/25 12:17:00;;;;;;;0.90;0.90;;;-1.40;99.90;;;;;;5097219;28;20040;-82
2021/12/25 12:19:36;;;;;;;0.80;0.80;;;-1.40;99.90;;;;;;5096948;28;20040;-80
2021/12/25 12:22:15;;;;;;;0.80;0.80;;;-1.40;99.90;;;;;;5095765;28;20082;-85
2021/12/25 12:25:02;;;;;;;0.75;0.75;;;-1.40;99.90;;;;;;5096305;28;20077;-81
2021/12/25 12:27:39;;;;;;;0.80;0.80;;;-1.40;99.90;;;;;;5102158;28;20152;-85
2021/12/25 12:30:11;;;;;;;0.80;0.80;;;-1.40;99.90;;;;;;5148293;27;20618;-84
2021/12/25 12:32:46;;;;;;;0.80;0.80;;;-1.40;99.90;;;;;;5116780;28;20031;-84
2021/12/25 12:35:32;;;;;;;0.80;0.80;;;-1.40;99.90;;;;;;5117323;27;20070;-83
2021/12/25 12:38:38;;;;;;;0.80;0.80;;;-1.40;99.90;;;;;;5117101;28;20040;-85
2021/12/25 12:41:20;;;;;;;0.80;0.80;;;-1.40;99.90;;;;;;5115778;28;20056;-84
2021/12/25 12:43:57;;;;;;;0.80;0.80;;;-1.40;99.90;;;;;;5115332;28;20081;-85
2021/12/25 12:46:45;;;;;;;0.80;0.80;;;-1.40;99.90;;;;;;5096812;28;20079;-83
2021/12/25 12:49:10;;;;;;;0.70;0.70;;;-1.40;99.90;;;;;;5094885;28;20040;-84
2021/12/25 12:51:36;;;;;;;0.80;0.80;;;-1.40;99.90;;;;;;5096261;28;20396;-84
2021/12/25 12:54:03;;;;;;;0.70;0.70;;;-1.60;99.90;;;;;;5096575;28;20139;-83
2021/12/25 12:56:29;;;;;;;;;;;-1.40;99.90;;;;;;5097057;28;20190;-83
2021/12/25 12:58:56;;;;;;;0.80;0.80;;;-1.50;99.90;;;;;;5097480;28;20364;-85
2021/12/25 13:01:24;;;;;;;0.80;0.80;;;-0.80;99.90;;;;;;5096378;28;20039;-85
2021/12/25 13:03:58;;;;;;;0.80;0.80;;;-1.40;99.90;;;;;;5096561;28;20040;-81
2021/12/25 13:06:29;;;;;;;0.80;0.80;;;-1.40;99.90;;;;;;5112014;28;20032;-83
2021/12/25 13:08:59;;;;;;;0.80;0.80;;;-1.50;99.90;;;;;;5096803;28;20062;-83
2021/12/25 13:11:34;;;;;;;0.80;0.80;;;-1.50;99.90;;;;;;5111910;28;20051;-84
2021/12/25 13:14:03;;;;;;;0.80;0.80;;;-1.40;99.90;;;;;;5138421;27;20090;-86
2021/12/25 13:16:38;;;;;;;0.80;0.80;;;-1.40;99.90;;;;;;5115031;28;20051;-82
2021/12/25 13:19:06;;;;;;;0.90;0.90;;;-1.50;99.90;;;;;;5116460;28;20118;-84
2021/12/25 13:21:35;;;;;;;0.80;0.80;;;-1.50;99.90;;;;;;5097925;28;20049;-86
2021/12/25 13:24:09;;;;;;;0.80;0.80;;;-1.40;99.90;;;;;;5116276;28;20031;-86
2021/12/25 13:26:41;;;;;;;0.80;0.80;;;-1.40;99.90;;;;;;5114912;28;20036;-86
2021/12/25 13:29:11;;;;;;;0.85;0.85;;;-1.40;99.90;;;;;;5098339;28;20036;-85
2021/12/25 13:31:40;;;;;;;1.00;1.00;;;-1.40;99.90;;;;;;5095796;28;20055;-83
2021/12/25 13:34:15;;;;;;;0.80;0.80;;;-1.40;99.90;;;;;;5111580;28;20036;-86
2021/12/25 13:36:45;;;;;;;0.80;0.80;;;-1.40;99.90;;;;;;5094684;28;20047;-83
2021/12/25 13:39:16;;;;;;;0.80;0.80;;;-1.40;99.90;;;;;;5111402;28;20063;-82
2021/12/25 13:41:52;;;;;;;0.82;0.82;;;-1.40;99.90;;;;;;5111039;27;20028;-84
2021/12/25 13:44:26;;;;;;;0.80;0.80;;;-1.40;99.90;;;;;;5095414;28;20036;-83
2021/12/25 13:47:14;;;;;;;0.80;0.80;;;-1.50;99.90;;;;;;5094691;28;20040;-82
2021/12/25 13:49:39;;;;;;;0.80;0.80;;;-1.50;99.90;;;;;;5105339;28;20048;-84
2021/12/25 13:52:12;;;;;;;0.80;0.80;;;-1.50;99.90;;;;;;5114697;28;20293;-83
2021/12/25 13:54:41;;;;;;;0.80;0.80;;;-1.40;99.90;;;;;;5115544;27;20071;-83
2021/12/25 13:57:08;;;;;;;0.80;0.80;;;-1.60;99.90;;;;;;5115468;28;20046;-80
2021/12/25 13:59:35;;;;;;;0.80;0.80;;;-1.60;99.90;;;;;;5115083;28;20491;-81
2021/12/25 14:02:08;;;;;;;0.85;0.85;;;-1.60;99.90;;;;;;5114266;28;20081;-83
2021/12/25 14:04:35;;;;;;;0.80;0.80;;;-1.60;99.90;;;;;;5115003;28;20040;-82
2021/12/25 14:07:00;;;;;;;0.80;0.80;;;-1.70;99.90;;;;;;5115391;28;20383;-85
2021/12/25 14:09:26;;;;;;;0.80;0.80;;;-1.70;99.90;;;;;;5096336;28;20036;-79
2021/12/25 14:11:55;;;;;;;0.90;0.90;;;-1.70;99.90;;;;;;5101976;28;20070;-80
2021/12/25 14:14:23;;;;;;;0.80;0.80;;;-1.70;99.90;;;;;;5114656;28;20039;-83